sensor_id;sensor_type;location;lat;lon;timestamp;pressure;altitude;pressure_sealevel;temperature;humidity
64792;BME280;51226;47.504;19.074;2023-05-22T00:02:34;100168.12;;;20.09;58.10
64792;BME280;51226;47.504;19.074;2023-05-22T00:05:40;100175.22;;;20.07;58.20
64792;BME280;51226;47.504;19.074;2023-05-22T00:08:43;100172.56;;;20.05;58.76
64792;BME280;51226;47.504;19.074;2023-05-22T00:11:46;100167.28;;;20.02;59.44
64792;BME280;51226;47.504;19.074;2023-05-22T00:14:49;100162.87;;;19.99;59.24
64792;BME280;51226;47.504;19.074;2023-05-22T00:17:52;100175.25;;;19.96;59.60
64792;BME280;51226;47.504;19.074;2023-05-22T00:20:56;100181.44;;;19.95;59.62
64792;BME280;51226;47.504;19.074;2023-05-22T00:24:00;100172.59;;;19.93;59.70
64792;BME280;51226;47.504;19.074;2023-05-22T00:27:03;100167.34;;;19.90;59.88
64792;BME280;51226;47.504;19.074;2023-05-22T00:30:06;100170.88;;;19.87;59.84
64792;BME280;51226;47.504;19.074;2023-05-22T00:33:08;100177.94;;;19.87;59.51
64792;BME280;51226;47.504;19.074;2023-05-22T00:36:11;100182.38;;;19.83;59.04
64792;BME280;51226;47.504;19.074;2023-05-22T00:39:14;100180.59;;;19.84;57.77
64792;BME280;51226;47.504;19.074;2023-05-22T00:42:17;100177.09;;;19.78;58.48
64792;BME280;51226;47.504;19.074;2023-05-22T00:45:20;100179.72;;;19.77;58.31
64792;BME280;51226;47.504;19.074;2023-05-22T00:48:24;100182.34;;;19.74;58.56
64792;BME280;51226;47.504;19.074;2023-05-22T00:51:28;100180.56;;;19.74;58.29
64792;BME280;51226;47.504;19.074;2023-05-22T00:54:31;100182.34;;;19.71;58.75
64792;BME280;51226;47.504;19.074;2023-05-22T00:57:34;100177.09;;;19.65;58.34
64792;BME280;51226;47.504;19.074;2023-05-22T01:00:37;100175.31;;;19.60;57.95
64792;BME280;51226;47.504;19.074;2023-05-22T01:03:43;100175.38;;;19.51;57.70
64792;BME280;51226;47.504;19.074;2023-05-22T01:06:47;100174.50;;;19.44;58.06
64792;BME280;51226;47.504;19.074;2023-05-22T01:09:50;100170.94;;;19.39;58.26
64792;BME280;51226;47.504;19.074;2023-05-22T01:13:06;100169.19;;;19.38;58.77
64792;BME280;51226;47.504;19.074;2023-05-22T01:16:48;100169.19;;;19.40;58.07
64792;BME280;51226;47.504;19.074;2023-05-22T01:32:19;100163.91;;;19.26;57.35
64792;BME280;51226;47.504;19.074;2023-05-22T01:35:23;100179.78;;;19.32;57.15
64792;BME280;51226;47.504;19.074;2023-05-22T01:38:26;100179.78;;;19.15;58.01
64792;BME280;51226;47.504;19.074;2023-05-22T01:41:29;100178.06;;;19.08;58.24
64792;BME280;51226;47.504;19.074;2023-05-22T01:44:32;100165.69;;;19.04;58.57
64792;BME280;51226;47.504;19.074;2023-05-22T01:47:34;100156.88;;;19.02;58.81
64792;BME280;51226;47.504;19.074;2023-05-22T01:50:38;100150.72;;;19.01;58.75
64792;BME280;51226;47.504;19.074;2023-05-22T01:56:48;100156.03;;;19.00;58.63
64792;BME280;51226;47.504;19.074;2023-05-22T01:59:58;100158.66;;;18.98;58.88
64792;BME280;51226;47.504;19.074;2023-05-22T02:03:18;100152.50;;;18.98;58.65
64792;BME280;51226;47.504;19.074;2023-05-22T02:06:27;100147.22;;;18.96;58.29
64792;BME280;51226;47.504;19.074;2023-05-22T02:09:30;100143.66;;;18.94;58.54
64792;BME280;51226;47.504;19.074;2023-05-22T02:12:36;100145.44;;;18.91;58.87
64792;BME280;51226;47.504;19.074;2023-05-22T02:15:39;100145.44;;;18.87;58.38
64792;BME280;51226;47.504;19.074;2023-05-22T02:18:42;100153.38;;;18.83;58.86
64792;BME280;51226;47.504;19.074;2023-05-22T02:21:45;100156.84;;;18.80;58.67
64792;BME280;51226;47.504;19.074;2023-05-22T02:24:48;100155.97;;;18.81;58.07
64792;BME280;51226;47.504;19.074;2023-05-22T02:27:51;100146.28;;;18.79;57.86
64792;BME280;51226;47.504;19.074;2023-05-22T02:30:54;100147.19;;;18.75;58.31
64792;BME280;51226;47.504;19.074;2023-05-22T02:33:57;100150.69;;;18.77;57.78
64792;BME280;51226;47.504;19.074;2023-05-22T02:37:00;100142.75;;;18.64;57.97
64792;BME280;51226;47.504;19.074;2023-05-22T02:40:06;100141.87;;;18.56;58.21
64792;BME280;51226;47.504;19.074;2023-05-22T02:43:10;100140.97;;;18.48;58.61
64792;BME280;51226;47.504;19.074;2023-05-22T02:46:12;100148.00;;;18.49;58.93
64792;BME280;51226;47.504;19.074;2023-05-22T02:49:18;100144.47;;;18.42;59.27
64792;BME280;51226;47.504;19.074;2023-05-22T02:52:20;100140.94;;;18.39;59.43
64792;BME280;51226;47.504;19.074;2023-05-22T02:55:24;100140.91;;;18.32;59.94
64792;BME280;51226;47.504;19.074;2023-05-22T02:58:26;100148.87;;;18.31;60.16
64792;BME280;51226;47.504;19.074;2023-05-22T03:01:29;100147.97;;;18.30;60.21
64792;BME280;51226;47.504;19.074;2023-05-22T03:04:31;100152.37;;;18.31;60.62
64792;BME280;51226;47.504;19.074;2023-05-22T03:07:37;100153.22;;;18.26;60.67
64792;BME280;51226;47.504;19.074;2023-05-22T03:10:39;100142.69;;;18.23;60.88
64792;BME280;51226;47.504;19.074;2023-05-22T03:13:43;100142.66;;;18.18;61.28
64792;BME280;51226;47.504;19.074;2023-05-22T03:16:45;100142.63;;;18.12;61.48
64792;BME280;51226;47.504;19.074;2023-05-22T03:19:48;100136.50;;;18.13;61.96
64792;BME280;51226;47.504;19.074;2023-05-22T03:22:51;100140.88;;;18.08;62.34
64792;BME280;51226;47.504;19.074;2023-05-22T03:25:54;100137.34;;;18.09;62.39
64792;BME280;51226;47.504;19.074;2023-05-22T03:28:59;100140.00;;;18.10;62.61
64792;BME280;51226;47.504;19.074;2023-05-22T03:32:02;100145.28;;;18.12;62.62
64792;BME280;51226;47.504;19.074;2023-05-22T03:35:05;100144.34;;;18.02;63.08
64792;BME280;51226;47.504;19.074;2023-05-22T03:38:09;100143.47;;;17.97;63.49
64792;BME280;51226;47.504;19.074;2023-05-22T03:41:11;100138.16;;;17.95;63.74
64792;BME280;51226;47.504;19.074;2023-05-22T03:44:15;100147.88;;;18.00;63.75
64792;BME280;51226;47.504;19.074;2023-05-22T03:47:17;100153.19;;;18.03;63.71
64792;BME280;51226;47.504;19.074;2023-05-22T03:50:20;100145.25;;;18.09;63.70
64792;BME280;51226;47.504;19.074;2023-05-22T03:53:23;100149.69;;;18.11;63.29
64792;BME280;51226;47.504;19.074;2023-05-22T03:56:27;100142.63;;;18.10;63.57
64792;BME280;51226;47.504;19.074;2023-05-22T03:59:29;100139.13;;;18.19;62.80
64792;BME280;51226;47.504;19.074;2023-05-22T04:02:32;100139.13;;;18.21;62.55
64792;BME280;51226;47.504;19.074;2023-05-22T04:05:35;100141.78;;;18.22;62.85
64792;BME280;51226;47.504;19.074;2023-05-22T04:08:38;100140.03;;;18.20;62.83
64792;BME280;51226;47.504;19.074;2023-05-22T04:11:40;100144.41;;;18.19;62.84
64792;BME280;51226;47.504;19.074;2023-05-22T04:14:43;100146.22;;;18.26;62.80
64792;BME280;51226;47.504;19.074;2023-05-22T04:17:48;100145.31;;;18.21;62.90
64792;BME280;51226;47.504;19.074;2023-05-22T04:20:51;100147.97;;;18.23;62.77
64792;BME280;51226;47.504;19.074;2023-05-22T04:23:54;100145.31;;;18.29;61.85
64792;BME280;51226;47.504;19.074;2023-05-22T04:26:57;100140.94;;;18.29;61.32
64792;BME280;51226;47.504;19.074;2023-05-22T04:30:01;100144.44;;;18.28;61.03
64792;BME280;51226;47.504;19.074;2023-05-22T04:33:04;100141.84;;;18.35;60.85
64792;BME280;51226;47.504;19.074;2023-05-22T04:36:07;100142.69;;;18.30;60.81
64792;BME280;51226;47.504;19.074;2023-05-22T04:39:13;100140.94;;;18.39;60.54
64792;BME280;51226;47.504;19.074;2023-05-22T04:42:16;100138.28;;;18.36;60.53
64792;BME280;51226;47.504;19.074;2023-05-22T04:45:19;100140.09;;;18.41;60.35
64792;BME280;51226;47.504;19.074;2023-05-22T04:48:26;100146.25;;;18.45;60.95
64792;BME280;51226;47.504;19.074;2023-05-22T04:51:29;100139.25;;;18.58;60.83
64792;BME280;51226;47.504;19.074;2023-05-22T04:54:33;100149.78;;;18.65;59.86
64792;BME280;51226;47.504;19.074;2023-05-22T04:57:37;100141.87;;;18.75;58.97
64792;BME280;51226;47.504;19.074;2023-05-22T05:00:40;100148.03;;;18.74;59.55
64792;BME280;51226;47.504;19.074;2023-05-22T05:03:43;100143.62;;;18.80;58.07
64792;BME280;51226;47.504;19.074;2023-05-22T05:06:46;100138.41;;;18.88;57.54
64792;BME280;51226;47.504;19.074;2023-05-22T05:09:49;100151.63;;;18.91;57.45
64792;BME280;51226;47.504;19.074;2023-05-22T05:12:51;100156.88;;;19.00;57.05
64792;BME280;51226;47.504;19.074;2023-05-22T05:15:54;100161.28;;;18.94;57.53
64792;BME280;51226;47.504;19.074;2023-05-22T05:18:57;100155.13;;;18.92;57.28
64792;BME280;51226;47.504;19.074;2023-05-22T05:22:00;100161.31;;;18.98;56.60
64792;BME280;51226;47.504;19.074;2023-05-22T05:25:03;100164.81;;;19.03;56.69
64792;BME280;51226;47.504;19.074;2023-05-22T05:28:07;100156.91;;;19.11;56.59
64792;BME280;51226;47.504;19.074;2023-05-22T05:31:13;100162.16;;;19.19;56.36
64792;BME280;51226;47.504;19.074;2023-05-22T05:34:17;100166.56;;;19.34;55.28
64792;BME280;51226;47.504;19.074;2023-05-22T05:37:20;100170.06;;;19.40;55.04
64792;BME280;51226;47.504;19.074;2023-05-22T05:40:23;100166.56;;;19.38;55.19
64792;BME280;51226;47.504;19.074;2023-05-22T05:43:27;100167.44;;;19.39;54.95
64792;BME280;51226;47.504;19.074;2023-05-22T05:46:30;100168.31;;;19.42;54.68
64792;BME280;51226;47.504;19.074;2023-05-22T05:49:33;100170.06;;;19.50;54.40
64792;BME280;51226;47.504;19.074;2023-05-22T05:52:38;100174.50;;;19.44;54.38
64792;BME280;51226;47.504;19.074;2023-05-22T05:55:41;100176.22;;;19.42;55.91
64792;BME280;51226;47.504;19.074;2023-05-22T05:58:44;100183.28;;;19.47;54.16
64792;BME280;51226;47.504;19.074;2023-05-22T06:01:52;100177.97;;;19.59;53.16
64792;BME280;51226;47.504;19.074;2023-05-22T06:04:55;100175.31;;;19.60;53.75
64792;BME280;51226;47.504;19.074;2023-05-22T06:07:58;100179.75;;;19.58;53.98
64792;BME280;51226;47.504;19.074;2023-05-22T06:11:01;100182.38;;;19.55;54.68
64792;BME280;51226;47.504;19.074;2023-05-22T06:14:04;100177.09;;;19.54;55.45
64792;BME280;51226;47.504;19.074;2023-05-22T06:17:09;100187.69;;;19.57;55.51
64792;BME280;51226;47.504;19.074;2023-05-22T06:20:12;100170.91;;;19.61;54.22
64792;BME280;51226;47.504;19.074;2023-05-22T06:23:17;100175.31;;;19.63;54.21
64792;BME280;51226;47.504;19.074;2023-05-22T06:26:20;100174.44;;;19.85;53.01
64792;BME280;51226;47.504;19.074;2023-05-22T06:29:24;100180.59;;;19.82;53.88
64792;BME280;51226;47.504;19.074;2023-05-22T06:32:27;100176.22;;;19.76;54.89
64792;BME280;51226;47.504;19.074;2023-05-22T06:35:31;100173.50;;;19.89;53.75
64792;BME280;51226;47.504;19.074;2023-05-22T06:38:33;100183.16;;;20.01;53.30
64792;BME280;51226;47.504;19.074;2023-05-22T06:41:36;100179.59;;;20.09;54.30
64792;BME280;51226;47.504;19.074;2023-05-22T06:44:39;100175.13;;;20.27;54.83
64792;BME280;51226;47.504;19.074;2023-05-22T06:47:42;100175.03;;;20.42;53.10
64792;BME280;51226;47.504;19.074;2023-05-22T06:50:45;100184.66;;;20.63;51.55
64792;BME280;51226;47.504;19.074;2023-05-22T06:53:48;100188.03;;;20.84;51.08
64792;BME280;51226;47.504;19.074;2023-05-22T06:56:50;100183.41;;;21.10;48.49
64792;BME280;51226;47.504;19.074;2023-05-22T06:59:53;100182.22;;;21.50;45.95
64792;BME280;51226;47.504;19.074;2023-05-22T07:02:56;100188.25;;;21.61;49.27
64792;BME280;51226;47.504;19.074;2023-05-22T07:06:00;100171.16;;;21.90;45.37
64792;BME280;51226;47.504;19.074;2023-05-22T07:09:04;100178.72;;;22.21;44.16
64792;BME280;51226;47.504;19.074;2023-05-22T07:12:08;100187.19;;;22.52;44.66
64792;BME280;51226;47.504;19.074;2023-05-22T07:15:10;100176.03;;;22.85;42.23
64792;BME280;51226;47.504;19.074;2023-05-22T07:18:17;100178.38;;;23.05;43.53
64792;BME280;51226;47.504;19.074;2023-05-22T07:21:20;100181.69;;;23.22;42.33
64792;BME280;51226;47.504;19.074;2023-05-22T07:24:26;100179.78;;;23.29;41.75
64792;BME280;51226;47.504;19.074;2023-05-22T07:27:28;100171.66;;;23.37;42.08
64792;BME280;51226;47.504;19.074;2023-05-22T07:30:33;100177.50;;;23.57;42.03
64792;BME280;51226;47.504;19.074;2023-05-22T07:33:35;100172.06;;;23.62;41.95
64792;BME280;51226;47.504;19.074;2023-05-22T07:36:38;100165.00;;;23.61;39.83
64792;BME280;51226;47.504;19.074;2023-05-22T07:39:41;100169.75;;;23.43;41.42
64792;BME280;51226;47.504;19.074;2023-05-22T07:42:44;100171.81;;;23.29;42.52
64792;BME280;51226;47.504;19.074;2023-05-22T07:45:47;100164.97;;;23.14;43.33
64792;BME280;51226;47.504;19.074;2023-05-22T07:48:50;100168.78;;;22.96;43.72
64792;BME280;51226;47.504;19.074;2023-05-22T07:51:53;100165.38;;;22.88;42.99
64792;BME280;51226;47.504;19.074;2023-05-22T07:54:57;100169.09;;;22.76;44.12
64792;BME280;51226;47.504;19.074;2023-05-22T07:58:00;100169.59;;;23.00;44.16
64792;BME280;51226;47.504;19.074;2023-05-22T08:01:06;100165.22;;;23.48;39.66
64792;BME280;51226;47.504;19.074;2023-05-22T08:04:10;100168.66;;;23.54;40.62
64792;BME280;51226;47.504;19.074;2023-05-22T08:07:13;100171.25;;;23.58;42.20
64792;BME280;51226;47.504;19.074;2023-05-22T08:10:17;100178.81;;;23.81;42.08
64792;BME280;51226;47.504;19.074;2023-05-22T08:13:20;100169.75;;;24.32;42.26
64792;BME280;51226;47.504;19.074;2023-05-22T08:16:24;100168.47;;;24.91;38.78
64792;BME280;51226;47.504;19.074;2023-05-22T08:19:27;100165.28;;;25.45;35.36
64792;BME280;51226;47.504;19.074;2023-05-22T08:22:30;100174.34;;;25.73;38.03
64792;BME280;51226;47.504;19.074;2023-05-22T08:25:32;100171.78;;;26.01;39.24
64792;BME280;51226;47.504;19.074;2023-05-22T08:28:35;100163.56;;;26.38;38.58
64792;BME280;51226;47.504;19.074;2023-05-22T08:31:38;100161.81;;;26.66;37.36
64792;BME280;51226;47.504;19.074;2023-05-22T08:34:41;100155.09;;;26.80;33.00
64792;BME280;51226;47.504;19.074;2023-05-22T08:37:44;100156.53;;;26.64;31.79
64792;BME280;51226;47.504;19.074;2023-05-22T08:40:47;100159.41;;;26.85;38.23
64792;BME280;51226;47.504;19.074;2023-05-22T08:43:52;100159.84;;;26.99;32.49
64792;BME280;51226;47.504;19.074;2023-05-22T08:46:56;100160.25;;;27.13;34.91
64792;BME280;51226;47.504;19.074;2023-05-22T08:50:01;100161.94;;;27.43;35.16
64792;BME280;51226;47.504;19.074;2023-05-22T08:53:04;100160.88;;;27.48;32.30
64792;BME280;51226;47.504;19.074;2023-05-22T08:56:08;100165.53;;;27.43;33.75
64792;BME280;51226;47.504;19.074;2023-05-22T08:59:11;100161.78;;;27.47;35.22
64792;BME280;51226;47.504;19.074;2023-05-22T09:02:15;100160.13;;;28.17;33.71
64792;BME280;51226;47.504;19.074;2023-05-22T09:05:18;100159.81;;;28.93;30.50
64792;BME280;51226;47.504;19.074;2023-05-22T09:08:20;100157.09;;;29.37;29.40
64792;BME280;51226;47.504;19.074;2023-05-22T09:11:23;100161.50;;;29.38;32.14
64792;BME280;51226;47.504;19.074;2023-05-22T09:14:27;100156.22;;;29.36;29.22
64792;BME280;51226;47.504;19.074;2023-05-22T09:17:39;100153.75;;;29.71;31.58
64792;BME280;51226;47.504;19.074;2023-05-22T09:20:42;100150.53;;;30.42;29.22
64792;BME280;51226;47.504;19.074;2023-05-22T09:23:50;100147.25;;;30.91;27.89
64792;BME280;51226;47.504;19.074;2023-05-22T09:26:53;100142.91;;;31.58;26.51
64792;BME280;51226;47.504;19.074;2023-05-22T09:29:56;100143.97;;;32.05;26.03
64792;BME280;51226;47.504;19.074;2023-05-22T09:32:59;100147.59;;;32.38;25.20
64792;BME280;51226;47.504;19.074;2023-05-22T09:36:02;100144.19;;;32.34;27.17
64792;BME280;51226;47.504;19.074;2023-05-22T09:39:04;100143.44;;;32.32;28.52
64792;BME280;51226;47.504;19.074;2023-05-22T09:42:11;100143.06;;;32.54;27.54
64792;BME280;51226;47.504;19.074;2023-05-22T09:45:20;100134.41;;;32.00;26.05
64792;BME280;51226;47.504;19.074;2023-05-22T09:48:25;100128.19;;;31.31;26.42
64792;BME280;51226;47.504;19.074;2023-05-22T09:51:28;100128.75;;;30.66;26.65
64792;BME280;51226;47.504;19.074;2023-05-22T09:54:31;100125.19;;;30.08;30.75
64792;BME280;51226;47.504;19.074;2023-05-22T09:57:42;100124.53;;;30.03;29.84
64792;BME280;51226;47.504;19.074;2023-05-22T10:00:45;100128.13;;;30.42;30.69
64792;BME280;51226;47.504;19.074;2023-05-22T10:03:50;100125.00;;;31.05;27.73
64792;BME280;51226;47.504;19.074;2023-05-22T10:06:55;100122.09;;;31.10;27.77
64792;BME280;51226;47.504;19.074;2023-05-22T10:10:01;100122.25;;;31.07;27.07
64792;BME280;51226;47.504;19.074;2023-05-22T10:13:05;100122.56;;;30.64;30.24
64792;BME280;51226;47.504;19.074;2023-05-22T10:16:08;100118.59;;;30.16;28.96
64792;BME280;51226;47.504;19.074;2023-05-22T10:19:13;100124.19;;;29.71;30.97
64792;BME280;51226;47.504;19.074;2023-05-22T10:22:16;100121.69;;;29.48;30.08
64792;BME280;51226;47.504;19.074;2023-05-22T10:25:22;100124.06;;;29.74;31.33
64792;BME280;51226;47.504;19.074;2023-05-22T10:28:26;100106.00;;;30.54;28.12
64792;BME280;51226;47.504;19.074;2023-05-22T10:35:18;100108.50;;;31.46;30.62
64792;BME280;51226;47.504;19.074;2023-05-22T10:41:25;100096.91;;;32.59;26.28
64792;BME280;51226;47.504;19.074;2023-05-22T10:44:28;100088.88;;;33.03;24.85
64792;BME280;51226;47.504;19.074;2023-05-22T10:47:34;100093.28;;;33.20;26.92
64792;BME280;51226;47.504;19.074;2023-05-22T10:50:37;100088.78;;;33.35;24.45
64792;BME280;51226;47.504;19.074;2023-05-22T10:53:43;100076.31;;;33.33;26.47
64792;BME280;51226;47.504;19.074;2023-05-22T10:56:46;100086.41;;;33.15;26.02
64792;BME280;51226;47.504;19.074;2023-05-22T10:59:49;100071.97;;;33.45;23.32
64792;BME280;51226;47.504;19.074;2023-05-22T11:02:55;100071.00;;;33.46;23.66
64792;BME280;51226;47.504;19.074;2023-05-22T11:06:29;100064.94;;;33.56;23.05
64792;BME280;51226;47.504;19.074;2023-05-22T11:09:33;100066.56;;;33.59;25.06
64792;BME280;51226;47.504;19.074;2023-05-22T11:12:36;100062.12;;;33.44;25.48
64792;BME280;51226;47.504;19.074;2023-05-22T11:15:42;100061.75;;;33.35;25.50
64792;BME280;51226;47.504;19.074;2023-05-22T11:18:46;100050.13;;;33.48;24.41
64792;BME280;51226;47.504;19.074;2023-05-22T11:21:49;100049.84;;;33.95;23.64
64792;BME280;51226;47.504;19.074;2023-05-22T11:24:53;100044.06;;;33.73;27.60
64792;BME280;51226;47.504;19.074;2023-05-22T11:27:55;100042.59;;;33.67;25.74
64792;BME280;51226;47.504;19.074;2023-05-22T11:30:59;100038.19;;;33.52;25.88
64792;BME280;51226;47.504;19.074;2023-05-22T11:34:02;100038.94;;;33.54;26.03
64792;BME280;51226;47.504;19.074;2023-05-22T11:37:05;100047.09;;;33.68;25.33
64792;BME280;51226;47.504;19.074;2023-05-22T11:40:08;100042.12;;;33.32;25.04
64792;BME280;51226;47.504;19.074;2023-05-22T11:43:11;100037.03;;;33.11;26.15
64792;BME280;51226;47.504;19.074;2023-05-22T11:46:13;100032.66;;;33.24;23.98
64792;BME280;51226;47.504;19.074;2023-05-22T11:49:17;100027.94;;;32.83;26.65
64792;BME280;51226;47.504;19.074;2023-05-22T11:52:19;100026.09;;;32.38;27.07
64792;BME280;51226;47.504;19.074;2023-05-22T11:55:22;100027.72;;;32.10;28.26
64792;BME280;51226;47.504;19.074;2023-05-22T11:58:28;100025.34;;;32.04;29.46
64792;BME280;51226;47.504;19.074;2023-05-22T12:01:31;100025.50;;;32.32;25.69
64792;BME280;51226;47.504;19.074;2023-05-22T12:04:36;100020.66;;;32.07;25.50
64792;BME280;51226;47.504;19.074;2023-05-22T12:07:38;100014.06;;;31.48;25.66
64792;BME280;51226;47.504;19.074;2023-05-22T12:10:51;100022.81;;;31.53;26.92
64792;BME280;51226;47.504;19.074;2023-05-22T12:14:00;100015.00;;;31.80;27.21
64792;BME280;51226;47.504;19.074;2023-05-22T12:17:03;100011.78;;;31.40;25.63
64792;BME280;51226;47.504;19.074;2023-05-22T12:20:06;100008.84;;;31.11;26.69
64792;BME280;51226;47.504;19.074;2023-05-22T12:23:24;100004.03;;;30.83;26.15
64792;BME280;51226;47.504;19.074;2023-05-22T12:26:27;99998.78;;;30.80;26.38
64792;BME280;51226;47.504;19.074;2023-05-22T12:29:29;100003.78;;;30.88;29.85
64792;BME280;51226;47.504;19.074;2023-05-22T12:32:32;99996.81;;;30.66;29.84
64792;BME280;51226;47.504;19.074;2023-05-22T12:35:36;99990.97;;;30.58;27.27
64792;BME280;51226;47.504;19.074;2023-05-22T12:38:39;99989.38;;;30.36;30.70
64792;BME280;51226;47.504;19.074;2023-05-22T12:41:42;99980.34;;;30.01;31.46
64792;BME280;51226;47.504;19.074;2023-05-22T12:44:45;99982.22;;;29.99;32.11
64792;BME280;51226;47.504;19.074;2023-05-22T12:47:48;99970.37;;;30.39;29.05
64792;BME280;51226;47.504;19.074;2023-05-22T12:50:51;99969.56;;;30.90;28.05
64792;BME280;51226;47.504;19.074;2023-05-22T12:53:55;99963.13;;;31.10;29.60
64792;BME280;51226;47.504;19.074;2023-05-22T12:56:58;99964.41;;;31.36;28.13
64792;BME280;51226;47.504;19.074;2023-05-22T13:00:00;99950.22;;;31.48;27.39
64792;BME280;51226;47.504;19.074;2023-05-22T13:03:03;99948.56;;;31.46;27.03
64792;BME280;51226;47.504;19.074;2023-05-22T13:06:07;99949.53;;;31.45;28.00
64792;BME280;51226;47.504;19.074;2023-05-22T13:09:09;99945.06;;;31.61;27.02
64792;BME280;51226;47.504;19.074;2023-05-22T13:12:12;99941.38;;;31.46;31.54
64792;BME280;51226;47.504;19.074;2023-05-22T13:15:16;99943.94;;;31.32;27.44
64792;BME280;51226;47.504;19.074;2023-05-22T13:18:18;99934.22;;;31.29;27.89
64792;BME280;51226;47.504;19.074;2023-05-22T13:21:21;99926.38;;;31.25;28.13
64792;BME280;51226;47.504;19.074;2023-05-22T13:24:27;99924.03;;;31.18;28.79
64792;BME280;51226;47.504;19.074;2023-05-22T13:27:29;99922.38;;;31.16;27.17
64792;BME280;51226;47.504;19.074;2023-05-22T13:30:35;99927.16;;;30.93;29.46
64792;BME280;51226;47.504;19.074;2023-05-22T13:33:37;99922.44;;;30.98;28.47
64792;BME280;51226;47.504;19.074;2023-05-22T13:36:40;99921.31;;;30.85;30.72
64792;BME280;51226;47.504;19.074;2023-05-22T13:39:43;99913.41;;;30.82;30.96
64792;BME280;51226;47.504;19.074;2023-05-22T13:42:46;99913.06;;;30.88;28.70
64792;BME280;51226;47.504;19.074;2023-05-22T13:45:49;99921.22;;;30.87;28.72
64792;BME280;51226;47.504;19.074;2023-05-22T13:48:52;99913.16;;;30.87;28.38
64792;BME280;51226;47.504;19.074;2023-05-22T13:51:54;99914.38;;;31.14;27.33
64792;BME280;51226;47.504;19.074;2023-05-22T13:54:58;99905.06;;;30.87;28.83
64792;BME280;51226;47.504;19.074;2023-05-22T13:58:01;99914.94;;;30.70;29.23
64792;BME280;51226;47.504;19.074;2023-05-22T14:01:03;99902.75;;;30.63;28.87
64792;BME280;51226;47.504;19.074;2023-05-22T14:04:06;99909.50;;;30.37;29.57
64792;BME280;51226;47.504;19.074;2023-05-22T14:07:09;99911.16;;;30.39;28.55
64792;BME280;51226;47.504;19.074;2023-05-22T14:10:12;99907.81;;;30.34;30.34
64792;BME280;51226;47.504;19.074;2023-05-22T14:13:14;99909.47;;;30.19;30.00
64792;BME280;51226;47.504;19.074;2023-05-22T14:16:17;99897.13;;;29.98;29.02
64792;BME280;51226;47.504;19.074;2023-05-22T14:19:20;99890.62;;;29.84;30.56
64792;BME280;51226;47.504;19.074;2023-05-22T14:22:23;99893.28;;;29.65;30.43
64792;BME280;51226;47.504;19.074;2023-05-22T14:25:25;99889.88;;;29.62;30.22
64792;BME280;51226;47.504;19.074;2023-05-22T14:28:28;99889.22;;;29.75;30.45
64792;BME280;51226;47.504;19.074;2023-05-22T14:31:42;99891.78;;;29.60;30.38
64792;BME280;51226;47.504;19.074;2023-05-22T14:34:45;99889.13;;;29.41;30.95
64792;BME280;51226;47.504;19.074;2023-05-22T14:37:48;99883.41;;;29.29;31.44
64792;BME280;51226;47.504;19.074;2023-05-22T14:40:51;99874.44;;;29.10;33.37
64792;BME280;51226;47.504;19.074;2023-05-22T14:43:53;99877.50;;;29.21;31.12
64792;BME280;51226;47.504;19.074;2023-05-22T14:46:56;99883.59;;;29.06;31.01
64792;BME280;51226;47.504;19.074;2023-05-22T14:49:59;99879.87;;;28.89;31.29
64792;BME280;51226;47.504;19.074;2023-05-22T14:53:20;99880.72;;;28.90;31.44
64792;BME280;51226;47.504;19.074;2023-05-22T14:56:23;99878.87;;;28.71;32.15
64792;BME280;51226;47.504;19.074;2023-05-22T14:59:26;99880.31;;;28.59;31.37
64792;BME280;51226;47.504;19.074;2023-05-22T15:02:28;99879.94;;;28.46;31.49
64792;BME280;51226;47.504;19.074;2023-05-22T15:05:31;99875.06;;;28.36;32.34
64792;BME280;51226;47.504;19.074;2023-05-22T15:08:34;99880.91;;;28.66;30.84
64792;BME280;51226;47.504;19.074;2023-05-22T15:11:38;99878.81;;;28.73;31.01
64792;BME280;51226;47.504;19.074;2023-05-22T15:14:41;99870.22;;;28.44;33.21
64792;BME280;51226;47.504;19.074;2023-05-22T15:17:44;99870.69;;;28.33;32.49
64792;BME280;51226;47.504;19.074;2023-05-22T15:20:47;99870.38;;;28.41;31.16
64792;BME280;51226;47.504;19.074;2023-05-22T15:23:50;99864.06;;;28.42;31.44
64792;BME280;51226;47.504;19.074;2023-05-22T15:26:53;99859.03;;;28.34;31.98
64792;BME280;51226;47.504;19.074;2023-05-22T15:29:55;99855.34;;;28.37;31.60
64792;BME280;51226;47.504;19.074;2023-05-22T15:32:58;99848.03;;;28.40;31.93
64792;BME280;51226;47.504;19.074;2023-05-22T15:36:05;99855.63;;;28.31;32.15
64792;BME280;51226;47.504;19.074;2023-05-22T15:39:07;99851.38;;;28.25;32.42
64792;BME280;51226;47.504;19.074;2023-05-22T15:42:10;99855.56;;;28.32;32.35
64792;BME280;51226;47.504;19.074;2023-05-22T15:45:12;99851.06;;;28.33;32.41
64792;BME280;51226;47.504;19.074;2023-05-22T15:48:15;99853.63;;;28.15;33.01
64792;BME280;51226;47.504;19.074;2023-05-22T15:51:18;99860.84;;;28.13;33.02
64792;BME280;51226;47.504;19.074;2023-05-22T15:54:21;99858.56;;;28.04;32.95
64792;BME280;51226;47.504;19.074;2023-05-22T15:57:25;99852.00;;;28.11;32.75
64792;BME280;51226;47.504;19.074;2023-05-22T16:00:30;99847.34;;;28.15;32.87
64792;BME280;51226;47.504;19.074;2023-05-22T16:03:33;99851.84;;;27.94;33.23
64792;BME280;51226;47.504;19.074;2023-05-22T16:06:36;99847.63;;;27.86;33.65
64792;BME280;51226;47.504;19.074;2023-05-22T16:09:38;99855.03;;;27.59;34.57
64792;BME280;51226;47.504;19.074;2023-05-22T16:12:43;99856.28;;;27.50;34.76
64792;BME280;51226;47.504;19.074;2023-05-22T16:15:45;99855.59;;;27.45;34.62